createdAt,value
2022-11-15T00:00:54.521Z,56.71
2022-11-15T00:03:23.603Z,56.65
2022-11-15T00:05:50.467Z,56.63
2022-11-15T00:08:17.135Z,56.69
2022-11-15T00:10:44.037Z,56.51
2022-11-15T00:13:12.769Z,56.38
2022-11-15T00:15:40.633Z,56.56
2022-11-15T00:18:12.726Z,56.46
2022-11-15T00:20:39.189Z,56.83
2022-11-15T00:23:06.100Z,56.82
2022-11-15T00:25:33.496Z,57.10
2022-11-15T00:28:01.492Z,56.73
2022-11-15T00:30:28.854Z,56.76
2022-11-15T00:32:55.725Z,56.88
2022-11-15T00:35:22.853Z,56.93
2022-11-15T00:37:49.433Z,56.66
2022-11-15T00:40:16.584Z,56.92
2022-11-15T00:42:42.994Z,56.60
2022-11-15T00:45:10.183Z,56.71
2022-11-15T00:47:36.715Z,56.70
2022-11-15T00:50:03.455Z,56.60
2022-11-15T00:52:29.810Z,56.62
2022-11-15T00:54:56.169Z,56.51
2022-11-15T00:57:22.595Z,56.43
2022-11-15T00:59:48.924Z,56.74
2022-11-15T01:02:15.282Z,56.30
2022-11-15T01:04:41.767Z,56.35
2022-11-15T01:07:08.277Z,56.35
2022-11-15T01:09:34.743Z,56.45
2022-11-15T01:12:01.171Z,56.35
2022-11-15T01:14:27.553Z,56.32
2022-11-15T01:16:54.319Z,56.16
2022-11-15T01:19:20.777Z,56.20
2022-11-15T01:21:49.965Z,56.36
2022-11-15T01:24:16.640Z,56.23
2022-11-15T01:26:42.986Z,56.12
2022-11-15T01:29:09.300Z,55.92
2022-11-15T01:31:35.725Z,56.27
2022-11-15T01:34:02.129Z,56.45
2022-11-15T01:36:28.484Z,56.44
2022-11-15T01:38:56.178Z,56.46
2022-11-15T01:41:26.168Z,56.46
2022-11-15T01:43:55.669Z,56.39
2022-11-15T01:46:39.243Z,56.40
2022-11-15T01:49:14.052Z,56.50
2022-11-15T01:51:40.746Z,56.33
2022-11-15T01:54:12.465Z,56.55
2022-11-15T01:56:46.435Z,56.53
2022-11-15T01:59:13.513Z,56.55
2022-11-15T02:01:40.023Z,56.53
2022-11-15T02:04:12.592Z,57.10
2022-11-15T02:06:40.618Z,56.74
2022-11-15T02:09:06.985Z,56.80
2022-11-15T02:11:33.758Z,56.93
2022-11-15T02:14:02.177Z,56.99
2022-11-15T02:16:28.439Z,57.01
2022-11-15T02:19:14.359Z,56.89
2022-11-15T02:21:51.137Z,56.87
2022-11-15T02:24:49.563Z,56.86
2022-11-15T02:27:50.818Z,56.91
2022-11-15T02:30:21.438Z,56.98
2022-11-15T02:32:55.582Z,57.03
2022-11-15T02:35:36.658Z,57.02
2022-11-15T02:38:32.178Z,57.14
2022-11-15T02:41:10.214Z,57.09
2022-11-15T02:43:58.133Z,57.31
2022-11-15T02:47:03.301Z,57.03
2022-11-15T02:49:33.153Z,57.25
2022-11-15T02:51:59.514Z,57.58
2022-11-15T02:54:33.102Z,57.54
2022-11-15T02:57:05.386Z,57.55
2022-11-15T02:59:43.940Z,57.71
2022-11-15T03:02:21.097Z,57.74
2022-11-15T03:04:57.133Z,57.66
2022-11-15T03:07:30.261Z,58.02
2022-11-15T03:10:18.792Z,57.79
2022-11-15T03:12:55.416Z,57.93
2022-11-15T03:15:37.337Z,58.08
2022-11-15T03:18:13.746Z,58.08
2022-11-15T03:20:40.947Z,58.33
2022-11-15T03:23:10.042Z,58.22
2022-11-15T03:25:41.551Z,58.26
2022-11-15T03:28:12.600Z,58.47
2022-11-15T03:30:40.832Z,58.57
2022-11-15T03:33:09.143Z,58.61
2022-11-15T03:35:40.106Z,58.71
2022-11-15T03:38:17.708Z,58.94
2022-11-15T03:40:50.178Z,58.97
2022-11-15T03:43:30.793Z,59.04
2022-11-15T03:46:03.139Z,59.01
2022-11-15T03:48:37.166Z,59.01
2022-11-15T03:51:05.073Z,59.24
2022-11-15T03:53:32.983Z,59.29
2022-11-15T03:55:59.603Z,59.50
2022-11-15T03:58:26.127Z,59.41
2022-11-15T04:00:52.595Z,59.31
2022-11-15T04:03:18.970Z,59.35
2022-11-15T04:05:45.306Z,59.52
2022-11-15T04:08:11.633Z,59.26
2022-11-15T04:10:38.121Z,59.64
2022-11-15T04:13:04.513Z,59.56
2022-11-15T04:15:30.929Z,59.46
2022-11-15T04:17:58.109Z,59.77
2022-11-15T04:20:46.101Z,59.73
2022-11-15T04:23:35.660Z,59.65
2022-11-15T04:26:05.217Z,59.69
2022-11-15T04:28:31.856Z,59.87
2022-11-15T04:30:58.314Z,60.01
2022-11-15T04:33:24.698Z,60.23
2022-11-15T04:36:30.295Z,60.13
2022-11-15T04:38:56.729Z,59.86
2022-11-15T04:41:23.073Z,60.28
2022-11-15T04:43:49.403Z,60.11
2022-11-15T04:46:15.755Z,60.18
2022-11-15T04:48:42.153Z,60.18
2022-11-15T04:51:08.523Z,60.23
2022-11-15T04:53:35.157Z,60.18
2022-11-15T04:56:01.575Z,60.28
2022-11-15T04:58:27.925Z,60.22
2022-11-15T05:00:54.479Z,60.00
2022-11-15T05:03:39.279Z,60.18
2022-11-15T05:06:06.370Z,60.25
2022-11-15T05:08:33.108Z,60.52
2022-11-15T05:10:59.490Z,60.38
2022-11-15T05:13:25.865Z,60.52
2022-11-15T05:15:52.205Z,60.56
2022-11-15T05:18:23.335Z,60.69
2022-11-15T05:20:50.220Z,60.67
2022-11-15T05:23:16.559Z,60.61
2022-11-15T05:25:43.005Z,60.71
2022-11-15T05:28:09.387Z,61.04
2022-11-15T05:30:35.737Z,60.82
2022-11-15T05:33:02.556Z,60.94
2022-11-15T05:35:39.654Z,60.84
2022-11-15T05:38:06.185Z,61.03
2022-11-15T05:40:33.506Z,61.02
2022-11-15T05:43:02.387Z,60.93
2022-11-15T05:45:29.711Z,61.11
2022-11-15T05:47:59.542Z,61.06
2022-11-15T05:50:26.609Z,61.19
2022-11-15T05:52:53.090Z,61.30
2022-11-15T05:55:19.566Z,61.23
2022-11-15T05:57:45.947Z,61.29
2022-11-15T06:00:12.980Z,61.43
2022-11-15T06:02:39.363Z,61.56
2022-11-15T06:05:06.213Z,61.58
2022-11-15T06:07:32.739Z,61.87
2022-11-15T06:09:59.114Z,61.65
2022-11-15T06:12:25.484Z,61.76
2022-11-15T06:14:51.831Z,61.70
2022-11-15T06:17:18.151Z,61.81
2022-11-15T06:19:44.480Z,61.68
2022-11-15T06:22:10.861Z,61.85
2022-11-15T06:24:37.222Z,61.70
2022-11-15T06:27:03.678Z,61.81
2022-11-15T06:29:30.025Z,61.82
2022-11-15T06:31:56.369Z,61.51
2022-11-15T06:34:22.837Z,61.83
2022-11-15T06:36:49.269Z,61.57
2022-11-15T06:39:15.692Z,61.30
2022-11-15T06:41:42.069Z,61.52
2022-11-15T06:44:08.408Z,61.44
2022-11-15T06:46:34.795Z,61.42
2022-11-15T06:49:05.195Z,61.59
2022-11-15T06:51:34.652Z,61.79
2022-11-15T06:54:02.184Z,62.04
2022-11-15T06:56:28.722Z,62.20
2022-11-15T06:58:56.210Z,62.35
2022-11-15T07:01:22.612Z,62.62
2022-11-15T07:03:48.972Z,62.55
2022-11-15T07:06:15.403Z,62.55
2022-11-15T07:08:42.689Z,62.80
2022-11-15T07:11:09.927Z,62.89
2022-11-15T07:13:38.013Z,62.79
2022-11-15T07:16:06.530Z,62.79
2022-11-15T07:18:36.054Z,62.62
2022-11-15T07:21:06.692Z,62.81
2022-11-15T07:23:34.093Z,62.56
2022-11-15T07:26:00.718Z,62.81
2022-11-15T07:28:28.065Z,62.73
2022-11-15T07:30:54.691Z,62.37
2022-11-15T07:33:21.035Z,62.75
2022-11-15T07:35:50.552Z,62.54
2022-11-15T07:38:21.372Z,62.56
2022-11-15T07:40:48.525Z,62.63
2022-11-15T07:43:14.987Z,62.63
2022-11-15T07:45:43.647Z,62.39
2022-11-15T07:48:10.583Z,62.38
2022-11-15T07:50:36.909Z,62.20
2022-11-15T07:53:03.292Z,62.43
2022-11-15T07:55:30.610Z,62.22
2022-11-15T07:58:04.694Z,62.17
2022-11-15T08:00:31.952Z,62.19
2022-11-15T08:03:10.581Z,62.14
2022-11-15T08:05:38.160Z,62.31
2022-11-15T08:08:05.443Z,62.31
2022-11-15T08:10:34.230Z,62.27
2022-11-15T08:13:06.711Z,61.89
2022-11-15T08:15:33.837Z,62.23
2022-11-15T08:18:04.616Z,62.14
2022-11-15T08:20:31.628Z,62.15
2022-11-15T08:22:59.000Z,62.10
2022-11-15T08:25:29.478Z,62.01
2022-11-15T08:27:57.987Z,62.06
2022-11-15T08:30:27.766Z,62.10
2022-11-15T08:32:54.687Z,62.55
2022-11-15T08:35:27.677Z,62.46
2022-11-15T08:37:55.608Z,62.93
2022-11-15T08:40:22.005Z,62.56
2022-11-15T08:42:48.457Z,62.55
2022-11-15T08:45:15.415Z,62.60
2022-11-15T08:47:41.748Z,62.96
2022-11-15T08:50:08.591Z,62.73
2022-11-15T08:52:35.054Z,62.58
2022-11-15T08:55:01.428Z,62.19
2022-11-15T08:57:31.245Z,62.53
2022-11-15T08:59:58.102Z,62.46
2022-11-15T09:02:24.551Z,62.15
2022-11-15T09:04:50.899Z,62.34
2022-11-15T09:07:17.436Z,62.35
2022-11-15T09:09:43.918Z,62.20
2022-11-15T09:12:10.530Z,62.31
2022-11-15T09:14:36.922Z,62.44
2022-11-15T09:17:04.047Z,62.37
2022-11-15T09:19:30.441Z,62.30
2022-11-15T09:21:56.789Z,62.29
2022-11-15T09:24:23.417Z,62.34
2022-11-15T09:26:52.172Z,62.07
2022-11-15T09:29:19.671Z,62.18
2022-11-15T09:31:46.063Z,62.05
2022-11-15T09:34:12.867Z,61.94
2022-11-15T09:36:39.278Z,61.79
2022-11-15T09:39:05.634Z,61.39
2022-11-15T09:41:47.447Z,61.00
2022-11-15T09:44:29.264Z,60.40
2022-11-15T09:47:10.062Z,60.21
2022-11-15T09:49:36.594Z,59.47
2022-11-15T09:52:03.685Z,58.95
2022-11-15T09:54:52.609Z,58.41
2022-11-15T09:57:32.236Z,58.68
2022-11-15T10:03:16.457Z,58.02
2022-11-15T10:05:51.593Z,57.95
2022-11-15T10:08:36.899Z,57.79
2022-11-15T10:11:36.051Z,57.32
2022-11-15T10:14:05.291Z,57.15
2022-11-15T10:16:46.806Z,56.06
2022-11-15T10:19:25.433Z,56.67
2022-11-15T10:22:05.719Z,56.49
2022-11-15T10:24:38.023Z,56.31
2022-11-15T10:27:14.303Z,56.14
2022-11-15T10:29:45.998Z,56.04
2022-11-15T10:32:14.579Z,55.76
2022-11-15T10:34:41.644Z,55.60
2022-11-15T10:37:08.213Z,54.65
2022-11-15T10:39:35.022Z,54.69
2022-11-15T10:42:28.933Z,55.02
2022-11-15T10:44:55.761Z,54.45
2022-11-15T10:47:37.766Z,54.59
2022-11-15T10:50:28.323Z,54.28
2022-11-15T10:52:55.081Z,53.77
2022-11-15T10:55:26.190Z,54.05
2022-11-15T10:57:55.452Z,53.78
2022-11-15T11:00:22.052Z,52.96
2022-11-15T11:03:07.920Z,53.25
2022-11-15T11:05:42.276Z,53.20
2022-11-15T11:08:15.459Z,53.11
2022-11-15T11:11:02.103Z,53.49
2022-11-15T11:13:31.161Z,52.43
2022-11-15T11:16:15.881Z,52.53
2022-11-15T11:19:16.521Z,52.47
2022-11-15T11:22:20.993Z,52.15
2022-11-15T11:24:53.085Z,52.12
2022-11-15T11:27:41.303Z,51.68
2022-11-15T11:30:10.810Z,51.06
2022-11-15T11:32:54.847Z,50.98
2022-11-15T11:35:46.260Z,51.04
2022-11-15T11:38:16.136Z,50.30
2022-11-15T11:41:16.894Z,51.05
2022-11-15T11:44:04.804Z,50.81
2022-11-15T11:46:50.507Z,50.10
2022-11-15T11:49:24.368Z,49.98
2022-11-15T11:52:08.701Z,50.00
2022-11-15T11:54:53.705Z,49.31
2022-11-15T11:57:41.241Z,49.15
2022-11-15T12:00:19.668Z,48.85
2022-11-15T12:02:55.455Z,48.95
2022-11-15T12:05:42.741Z,48.84
2022-11-15T12:08:31.835Z,48.50
2022-11-15T12:11:18.247Z,48.47
2022-11-15T12:13:47.821Z,47.77
2022-11-15T12:16:19.906Z,47.88
2022-11-15T12:18:51.731Z,47.50
2022-11-15T12:21:35.757Z,47.39
2022-11-15T12:24:18.810Z,47.53
2022-11-15T12:27:01.305Z,47.37
2022-11-15T12:29:45.842Z,46.96
2022-11-15T12:32:25.093Z,46.77
2022-11-15T12:34:53.113Z,46.35
2022-11-15T12:37:50.066Z,46.81
2022-11-15T12:40:21.352Z,48.18
2022-11-15T12:42:59.649Z,47.12
2022-11-15T12:45:32.524Z,46.89
2022-11-15T12:48:17.304Z,46.85
2022-11-15T12:50:55.897Z,47.00
2022-11-15T12:53:28.664Z,46.80
2022-11-15T12:56:04.268Z,47.06
2022-11-15T12:58:58.165Z,46.91
2022-11-15T13:01:36.869Z,46.43
2022-11-15T13:04:25.344Z,46.16
2022-11-15T13:06:54.079Z,46.16
2022-11-15T13:09:38.337Z,46.35
2022-11-15T13:12:13.526Z,45.93
2022-11-15T13:14:44.449Z,46.13
2022-11-15T13:17:18.136Z,46.00
2022-11-15T13:19:47.413Z,45.61
2022-11-15T13:22:32.330Z,45.39
2022-11-15T13:25:01.643Z,45.57
2022-11-15T13:27:28.285Z,45.64
2022-11-15T13:29:54.748Z,45.60
2022-11-15T13:32:22.175Z,45.58
2022-11-15T13:34:53.577Z,45.56
2022-11-15T13:37:22.974Z,45.55
2022-11-15T13:39:50.232Z,45.16
2022-11-15T13:42:21.290Z,45.38
2022-11-15T13:45:02.497Z,45.49
2022-11-15T13:47:30.642Z,44.74
2022-11-15T13:50:01.878Z,45.41
2022-11-15T13:52:34.847Z,45.45
2022-11-15T13:55:09.280Z,45.38
2022-11-15T13:57:44.478Z,45.79
2022-11-15T14:00:29.327Z,45.43
2022-11-15T14:02:57.515Z,45.19
2022-11-15T14:05:26.787Z,45.46
2022-11-15T14:08:03.449Z,45.40
2022-11-15T14:10:38.329Z,45.30
2022-11-15T14:13:11.602Z,44.55
2022-11-15T14:15:39.692Z,44.47
2022-11-15T14:18:06.947Z,44.44
2022-11-15T14:20:37.959Z,44.90
2022-11-15T14:23:40.045Z,45.23
2022-11-15T14:26:11.898Z,43.95
2022-11-15T14:28:41.190Z,44.41
2022-11-15T14:31:14.091Z,44.98
2022-11-15T14:33:41.034Z,44.37
2022-11-15T14:36:16.272Z,44.87
2022-11-15T14:38:43.858Z,44.84
2022-11-15T14:41:27.273Z,45.19
2022-11-15T14:43:54.233Z,44.90
2022-11-15T14:46:20.757Z,45.18
2022-11-15T14:48:47.170Z,45.23
2022-11-15T14:51:16.498Z,45.23
2022-11-15T14:53:43.995Z,45.44
2022-11-15T14:56:11.386Z,45.71
2022-11-15T14:58:37.778Z,45.87
2022-11-15T15:01:13.756Z,46.16
2022-11-15T15:03:40.053Z,46.80
2022-11-15T15:06:06.577Z,45.93
2022-11-15T15:08:33.143Z,46.15
2022-11-15T15:10:59.798Z,45.97
2022-11-15T15:13:26.208Z,46.41
2022-11-15T15:15:53.231Z,46.37
2022-11-15T15:18:20.858Z,46.57
2022-11-15T15:20:55.102Z,46.68
2022-11-15T15:23:21.832Z,46.44
2022-11-15T15:25:50.285Z,46.55
2022-11-15T15:28:16.925Z,46.58
2022-11-15T15:30:43.260Z,46.44
2022-11-15T15:33:09.622Z,46.98
2022-11-15T15:35:37.490Z,46.34
2022-11-15T15:38:05.912Z,46.58
2022-11-15T15:40:34.181Z,46.53
2022-11-15T15:43:01.341Z,46.57
2022-11-15T15:45:28.560Z,46.45
2022-11-15T15:47:54.978Z,46.57
2022-11-15T15:50:29.838Z,46.81
2022-11-15T15:52:59.106Z,46.77
2022-11-15T15:55:26.194Z,46.83
2022-11-15T15:57:53.304Z,46.83
2022-11-15T16:00:21.367Z,47.08
2022-11-15T16:02:47.940Z,46.89
2022-11-15T16:05:14.369Z,47.06
2022-11-15T16:07:41.445Z,47.15
2022-11-15T16:10:29.155Z,47.51
2022-11-15T16:12:56.932Z,47.36
2022-11-15T16:15:25.666Z,47.72
2022-11-15T16:17:56.984Z,47.93
2022-11-15T16:20:35.429Z,47.88
2022-11-15T16:23:08.707Z,47.83
2022-11-15T16:25:40.731Z,48.08
2022-11-15T16:28:25.415Z,47.78
2022-11-15T16:31:04.297Z,48.43
2022-11-15T16:33:31.339Z,48.24
2022-11-15T16:35:58.297Z,48.20
2022-11-15T16:38:26.762Z,48.25
2022-11-15T16:40:53.256Z,48.07
2022-11-15T16:43:19.644Z,48.08
2022-11-15T16:45:46.193Z,48.21
2022-11-15T16:48:27.162Z,48.44
2022-11-15T16:50:58.768Z,48.30
2022-11-15T16:53:26.228Z,48.37
2022-11-15T16:55:52.693Z,48.35
2022-11-15T16:58:19.032Z,48.49
2022-11-15T17:00:46.158Z,48.25
2022-11-15T17:03:12.663Z,48.48
2022-11-15T17:05:39.045Z,48.04
2022-11-15T17:08:06.430Z,48.50
2022-11-15T17:10:32.790Z,48.41
2022-11-15T17:12:59.137Z,48.15
2022-11-15T17:15:25.571Z,48.29
2022-11-15T17:17:53.852Z,48.43
2022-11-15T17:20:22.647Z,48.64
2022-11-15T17:22:48.994Z,48.70
2022-11-15T17:25:15.482Z,49.15
2022-11-15T17:27:42.318Z,49.08
2022-11-15T17:30:19.968Z,49.31
2022-11-15T17:32:47.801Z,50.05
2022-11-15T17:35:15.853Z,49.38
2022-11-15T17:37:42.574Z,49.69
2022-11-15T17:40:09.608Z,49.94
2022-11-15T17:42:35.976Z,50.16
2022-11-15T17:45:08.185Z,50.32
2022-11-15T17:47:36.369Z,50.50
2022-11-15T17:50:02.947Z,50.46
2022-11-15T17:52:29.297Z,50.74
2022-11-15T17:54:55.630Z,50.90
2022-11-15T17:57:21.969Z,51.05
2022-11-15T18:00:01.076Z,51.03
2022-11-15T18:02:27.400Z,51.19
2022-11-15T18:04:53.883Z,51.10
2022-11-15T18:07:20.260Z,51.35
2022-11-15T18:09:46.674Z,51.62
2022-11-15T18:12:13.260Z,51.56
2022-11-15T18:14:39.655Z,51.55
2022-11-15T18:17:06.000Z,52.25
2022-11-15T18:19:32.528Z,52.37
2022-11-15T18:22:00.743Z,52.46
2022-11-15T18:24:29.925Z,52.61
2022-11-15T18:26:57.821Z,52.79
2022-11-15T18:29:24.892Z,53.20
2022-11-15T18:31:55.449Z,53.25
2022-11-15T18:34:28.738Z,53.02
2022-11-15T18:36:55.065Z,53.12
2022-11-15T18:39:21.412Z,53.26
2022-11-15T18:41:48.636Z,53.34
2022-11-15T18:44:15.757Z,53.60
2022-11-15T18:46:44.815Z,53.43
2022-11-15T18:49:13.100Z,53.54
2022-11-15T18:51:42.895Z,53.60
2022-11-15T18:54:11.772Z,53.77
2022-11-15T18:56:39.005Z,53.84
2022-11-15T18:59:06.375Z,54.09
2022-11-15T19:01:38.184Z,54.02
2022-11-15T19:04:22.153Z,53.85
2022-11-15T19:06:50.225Z,54.00
2022-11-15T19:09:18.825Z,54.11
2022-11-15T19:11:47.242Z,54.28
2022-11-15T19:14:16.351Z,54.21
2022-11-15T19:16:45.059Z,54.21
2022-11-15T19:19:19.880Z,54.29
2022-11-15T19:21:46.750Z,54.31
2022-11-15T19:24:13.448Z,54.48
2022-11-15T19:26:40.250Z,54.20
2022-11-15T19:29:08.031Z,54.25
2022-11-15T19:31:34.472Z,54.56
2022-11-15T19:34:04.470Z,54.34
2022-11-15T19:36:33.368Z,54.34
2022-11-15T19:39:05.153Z,54.42
2022-11-15T19:41:31.900Z,54.26
2022-11-15T19:43:58.259Z,54.36
2022-11-15T19:46:25.033Z,54.64
2022-11-15T19:48:51.749Z,54.33
2022-11-15T19:51:21.905Z,54.26
2022-11-15T19:53:49.675Z,54.27
2022-11-15T19:56:18.413Z,54.28
2022-11-15T19:58:45.743Z,54.38
2022-11-15T20:01:19.765Z,54.22
2022-11-15T20:03:47.724Z,54.20
2022-11-15T20:06:16.535Z,54.32
2022-11-15T20:08:43.804Z,54.49
2022-11-15T20:11:11.047Z,54.45
2022-11-15T20:13:37.478Z,54.42
2022-11-15T20:16:04.616Z,54.29
2022-11-15T20:18:31.317Z,54.08
2022-11-15T20:20:59.036Z,54.46
2022-11-15T20:23:26.838Z,54.35
2022-11-15T20:25:53.999Z,54.35
2022-11-15T20:28:23.409Z,54.28
2022-11-15T20:30:53.206Z,54.35
2022-11-15T20:33:20.509Z,54.38
2022-11-15T20:35:46.911Z,54.29
2022-11-15T20:38:13.310Z,54.21
2022-11-15T20:40:40.690Z,54.48
2022-11-15T20:43:11.219Z,54.45
2022-11-15T20:45:38.489Z,54.54
2022-11-15T20:48:05.282Z,54.51
2022-11-15T20:50:46.394Z,54.33
2022-11-15T20:53:15.337Z,54.75
2022-11-15T20:55:44.001Z,54.52
2022-11-15T20:58:11.223Z,54.50
2022-11-15T21:00:37.938Z,54.39
2022-11-15T21:03:08.145Z,54.67
2022-11-15T21:05:37.355Z,54.68
2022-11-15T21:08:03.907Z,54.88
2022-11-15T21:10:49.276Z,54.98
2022-11-15T21:13:15.664Z,54.74
2022-11-15T21:15:42.049Z,54.92
2022-11-15T21:18:08.596Z,55.10
2022-11-15T21:20:43.935Z,55.28
2022-11-15T21:23:11.589Z,55.14
2022-11-15T21:25:37.956Z,55.48
2022-11-15T21:28:04.506Z,55.60
2022-11-15T21:30:30.942Z,55.81
2022-11-15T21:32:57.434Z,56.06
2022-11-15T21:35:24.121Z,55.91
2022-11-15T21:37:56.525Z,56.07
2022-11-15T21:40:24.393Z,56.18
2022-11-15T21:42:50.785Z,56.38
2022-11-15T21:45:17.237Z,56.30
2022-11-15T21:47:46.456Z,56.32
2022-11-15T21:50:13.704Z,56.30
2022-11-15T21:52:40.574Z,56.59
2022-11-15T21:55:07.575Z,56.51
2022-11-15T21:57:34.090Z,56.74
2022-11-15T22:00:19.221Z,56.58
2022-11-15T22:02:45.696Z,56.27
2022-11-15T22:05:12.068Z,56.61
2022-11-15T22:07:38.532Z,56.65
2022-11-15T22:10:05.691Z,56.59
2022-11-15T22:12:32.040Z,56.84
2022-11-15T22:14:58.433Z,56.75
2022-11-15T22:17:44.929Z,56.75
2022-11-15T22:20:29.976Z,56.17
2022-11-15T22:22:58.806Z,56.31
2022-11-15T22:25:26.300Z,56.50
2022-11-15T22:27:53.503Z,56.53
2022-11-15T22:30:20.597Z,56.50
2022-11-15T22:32:47.452Z,56.54
2022-11-15T22:35:14.269Z,56.53
2022-11-15T22:37:41.122Z,56.60
2022-11-15T22:40:08.453Z,56.61
2022-11-15T22:42:34.889Z,56.58
2022-11-15T22:45:01.238Z,56.53
2022-11-15T22:47:27.643Z,56.45
2022-11-15T22:49:54.113Z,56.55
2022-11-15T22:52:20.515Z,56.84
2022-11-15T22:54:46.902Z,56.58
2022-11-15T22:57:13.273Z,56.54
2022-11-15T22:59:41.036Z,56.48
2022-11-15T23:02:07.381Z,56.61
2022-11-15T23:04:33.875Z,56.51
2022-11-15T23:07:00.255Z,56.48
2022-11-15T23:09:26.705Z,56.60
2022-11-15T23:12:12.075Z,56.57
2022-11-15T23:14:38.472Z,56.70
2022-11-15T23:17:04.843Z,56.57
2022-11-15T23:19:31.337Z,56.90
2022-11-15T23:22:16.349Z,56.80
2022-11-15T23:24:42.744Z,57.26
2022-11-15T23:27:09.201Z,57.20
2022-11-15T23:29:56.722Z,56.97
2022-11-15T23:32:41.875Z,57.18
2022-11-15T23:35:08.501Z,57.33
2022-11-15T23:37:35.427Z,57.36
2022-11-15T23:40:01.880Z,57.86
2022-11-15T23:42:28.274Z,57.45
2022-11-15T23:44:54.661Z,57.51
2022-11-15T23:47:21.168Z,58.04
2022-11-15T23:49:47.558Z,57.94
2022-11-15T23:52:15.489Z,58.16
2022-11-15T23:54:42.179Z,58.11
2022-11-15T23:57:11.820Z,58.49
2022-11-15T23:59:44.773Z,58.02
